createdAt,value
2023-02-09T00:01:21.764Z,102588.41
2023-02-09T00:03:48.696Z,102597.25
2023-02-09T00:06:17.038Z,102604.25
2023-02-09T00:08:43.990Z,102598.31
2023-02-09T00:11:13.333Z,102589.31
2023-02-09T00:13:40.240Z,102580.41
2023-02-09T00:16:07.346Z,102580.47
2023-02-09T00:18:34.558Z,102576.25
2023-02-09T00:21:02.915Z,102569.34
2023-02-09T00:23:30.903Z,102562.50
2023-02-09T00:25:59.859Z,102577.59
2023-02-09T00:28:26.837Z,102567.13
2023-02-09T00:30:53.858Z,102561.84
2023-02-09T00:33:20.951Z,102562.69
2023-02-09T00:35:48.166Z,102567.13
2023-02-09T00:38:15.699Z,102568.31
2023-02-09T00:40:42.720Z,102548.16
2023-02-09T00:43:10.650Z,102555.16
2023-02-09T00:45:37.712Z,102548.25
2023-02-09T00:48:04.707Z,102548.06
2023-02-09T00:50:31.599Z,102557.72
2023-02-09T00:52:58.659Z,102549.09
2023-02-09T00:55:25.580Z,102533.34
2023-02-09T00:57:52.569Z,102542.09
2023-02-09T01:00:20.827Z,102525.56
2023-02-09T01:02:47.923Z,102548.16
2023-02-09T01:05:14.801Z,102527.28
2023-02-09T01:07:41.833Z,102542.03
2023-02-09T01:10:09.111Z,102538.72
2023-02-09T01:12:38.304Z,102535.34
2023-02-09T01:15:05.258Z,102541.44
2023-02-09T01:17:32.182Z,102531.91
2023-02-09T01:19:59.009Z,102533.50
2023-02-09T01:22:26.169Z,102545.56
2023-02-09T01:24:53.007Z,102539.41
2023-02-09T01:27:19.900Z,102540.22
2023-02-09T01:29:46.760Z,102527.16
2023-02-09T01:32:13.754Z,102508.88
2023-02-09T01:34:40.757Z,102508.06
2023-02-09T01:37:07.700Z,102505.66
2023-02-09T01:39:34.563Z,102514.28
2023-02-09T01:42:01.547Z,102515.13
2023-02-09T01:44:29.751Z,102528.19
2023-02-09T01:46:56.614Z,102526.50
2023-02-09T01:49:26.639Z,102527.59
2023-02-09T01:51:58.014Z,102512.91
2023-02-09T01:54:26.452Z,102519.16
2023-02-09T01:56:57.690Z,102505.25
2023-02-09T01:59:24.798Z,102512.16
2023-02-09T02:01:52.583Z,102514.00
2023-02-09T02:04:19.980Z,102509.63
2023-02-09T02:06:46.979Z,102507.19
2023-02-09T02:09:15.171Z,102512.56
2023-02-09T02:11:44.244Z,102509.88
2023-02-09T02:14:14.364Z,102501.25
2023-02-09T02:16:42.736Z,102505.66
2023-02-09T02:19:09.888Z,102510.78
2023-02-09T02:21:38.311Z,102506.16
2023-02-09T02:24:08.244Z,102519.34
2023-02-09T02:26:36.549Z,102523.72
2023-02-09T02:29:07.338Z,102514.00
2023-02-09T02:31:35.598Z,102520.75
2023-02-09T02:34:03.987Z,102528.50
2023-02-09T02:36:34.449Z,102522.19
2023-02-09T02:39:04.781Z,102518.66
2023-02-09T02:41:51.914Z,102518.34
2023-02-09T02:44:19.345Z,102508.06
2023-02-09T02:46:48.963Z,102496.84
2023-02-09T02:49:21.810Z,102488.16
2023-02-09T02:51:50.309Z,102491.69
2023-02-09T02:54:20.057Z,102499.63
2023-02-09T02:56:51.035Z,102489.91
2023-02-09T02:59:20.079Z,102503.75
2023-02-09T03:01:52.261Z,102502.06
2023-02-09T03:04:20.234Z,102502.31
2023-02-09T03:06:47.129Z,102498.06
2023-02-09T03:09:13.957Z,102490.16
2023-02-09T03:11:42.744Z,102498.94
2023-02-09T03:14:13.339Z,102499.94
2023-02-09T03:16:40.640Z,102500.09
2023-02-09T03:19:08.891Z,102508.88
2023-02-09T03:21:36.282Z,102512.41
2023-02-09T03:24:08.818Z,102506.28
2023-02-09T03:26:40.325Z,102501.03
2023-02-09T03:29:09.273Z,102495.03
2023-02-09T03:31:36.443Z,102499.44
2023-02-09T03:34:03.584Z,102503.06
2023-02-09T03:36:33.211Z,102507.59
2023-02-09T03:39:00.227Z,102498.81
2023-02-09T03:41:27.110Z,102505.81
2023-02-09T03:43:57.281Z,102503.28
2023-02-09T03:46:24.223Z,102505.22
2023-02-09T03:48:51.220Z,102501.09
2023-02-09T03:51:18.380Z,102503.84
2023-02-09T03:53:45.422Z,102502.22
2023-02-09T03:56:12.407Z,102497.91
2023-02-09T03:58:39.276Z,102495.41
2023-02-09T04:01:08.311Z,102486.63
2023-02-09T04:03:35.620Z,102487.47
2023-02-09T04:06:02.627Z,102500.63
2023-02-09T04:08:30.304Z,102488.47
2023-02-09T04:10:57.841Z,102494.63
2023-02-09T04:13:25.186Z,102500.84
2023-02-09T04:15:52.640Z,102508.78
2023-02-09T04:18:19.608Z,102508.00
2023-02-09T04:20:47.112Z,102512.53
2023-02-09T04:23:14.332Z,102514.38
2023-02-09T04:25:41.193Z,102515.22
2023-02-09T04:28:08.094Z,102507.47
2023-02-09T04:30:35.099Z,102518.00
2023-02-09T04:33:02.039Z,102527.53
2023-02-09T04:35:28.930Z,102532.66
2023-02-09T04:37:55.728Z,102539.63
2023-02-09T04:40:22.646Z,102546.63
2023-02-09T04:42:49.603Z,102548.31
2023-02-09T04:45:16.604Z,102546.56
2023-02-09T04:47:43.432Z,102544.78
2023-02-09T04:50:10.924Z,102556.75
2023-02-09T04:52:37.859Z,102549.69
2023-02-09T04:55:05.027Z,102544.31
2023-02-09T04:57:35.058Z,102535.31
2023-02-09T05:00:01.892Z,102518.47
2023-02-09T05:02:28.799Z,102524.53
2023-02-09T05:04:55.586Z,102536.72
2023-02-09T05:07:23.516Z,102534.16
2023-02-09T05:09:50.389Z,102548.97
2023-02-09T05:12:17.244Z,102549.81
2023-02-09T05:14:44.157Z,102554.16
2023-02-09T05:17:11.043Z,102547.19
2023-02-09T05:19:38.009Z,102561.81
2023-02-09T05:22:04.888Z,102558.31
2023-02-09T05:24:31.748Z,102560.91
2023-02-09T05:26:58.685Z,102558.31
2023-02-09T05:29:25.544Z,102562.53
2023-02-09T05:31:52.525Z,102571.19
2023-02-09T05:34:19.439Z,102560.06
2023-02-09T05:36:47.986Z,102562.69
2023-02-09T05:39:14.810Z,102561.75
2023-02-09T05:41:44.728Z,102566.06
2023-02-09T05:44:11.776Z,102573.06
2023-02-09T05:46:38.611Z,102579.13
2023-02-09T05:49:05.402Z,102584.34
2023-02-09T05:51:32.363Z,102587.72
2023-02-09T05:53:59.185Z,102584.19
2023-02-09T05:56:26.114Z,102582.34
2023-02-09T05:58:52.980Z,102586.66
2023-02-09T06:01:19.798Z,102564.91
2023-02-09T06:03:46.801Z,102579.72
2023-02-09T06:06:13.627Z,102584.97
2023-02-09T06:08:40.575Z,102587.41
2023-02-09T06:11:07.704Z,102585.63
2023-02-09T06:13:34.648Z,102596.94
2023-02-09T06:16:01.727Z,102589.03
2023-02-09T06:18:28.551Z,102597.59
2023-02-09T06:20:55.447Z,102594.91
2023-02-09T06:23:22.332Z,102605.38
2023-02-09T06:25:53.341Z,102614.72
2023-02-09T06:28:20.767Z,102619.97
2023-02-09T06:30:50.690Z,102624.19
2023-02-09T06:33:18.425Z,102622.25
2023-02-09T06:35:45.272Z,102630.03
2023-02-09T06:38:12.639Z,102627.25
2023-02-09T06:40:39.514Z,102625.41
2023-02-09T06:43:06.467Z,102633.25
2023-02-09T06:45:33.404Z,102640.25
2023-02-09T06:48:00.301Z,102640.06
2023-02-09T06:50:27.315Z,102644.38
2023-02-09T06:52:54.336Z,102656.44
2023-02-09T06:55:21.222Z,102646.81
2023-02-09T06:57:48.161Z,102651.13
2023-02-09T07:00:15.457Z,102648.50
2023-02-09T07:02:43.408Z,102650.22
2023-02-09T07:05:10.743Z,102648.44
2023-02-09T07:07:38.191Z,102649.19
2023-02-09T07:10:06.061Z,102651.66
2023-02-09T07:12:33.480Z,102652.34
2023-02-09T07:15:01.252Z,102654.94
2023-02-09T07:17:30.247Z,102663.63
2023-02-09T07:19:57.355Z,102660.09
2023-02-09T07:22:25.803Z,102666.31
2023-02-09T07:24:52.665Z,102656.72
2023-02-09T07:27:20.095Z,102661.03
2023-02-09T07:29:47.132Z,102653.19
2023-02-09T07:32:14.024Z,102668.78
2023-02-09T07:34:40.911Z,102661.69
2023-02-09T07:37:08.209Z,102667.63
2023-02-09T07:39:35.483Z,102676.16
2023-02-09T07:42:02.525Z,102671.53
2023-02-09T07:44:29.631Z,102669.81
2023-02-09T07:46:56.626Z,102679.44
2023-02-09T07:49:23.975Z,102666.38
2023-02-09T07:51:51.331Z,102669.81
2023-02-09T07:54:18.251Z,102666.38
2023-02-09T07:56:45.203Z,102673.16
2023-02-09T07:59:12.163Z,102672.38
2023-02-09T08:01:39.272Z,102675.75
2023-02-09T08:04:06.398Z,102678.28
2023-02-09T08:06:41.901Z,102682.50
2023-02-09T08:09:10.041Z,102684.94
2023-02-09T08:11:40.555Z,102699.66
2023-02-09T08:14:11.711Z,102709.09
2023-02-09T08:16:39.085Z,102716.78
2023-02-09T08:19:09.384Z,102718.47
2023-02-09T08:21:38.718Z,102721.91
2023-02-09T08:24:07.345Z,102715.69
2023-02-09T08:26:35.482Z,102720.63
2023-02-09T08:29:03.009Z,102724.81
2023-02-09T08:31:30.457Z,102732.41
2023-02-09T08:33:58.240Z,102736.72
2023-02-09T08:36:25.360Z,102746.34
2023-02-09T08:38:52.870Z,102741.13
2023-02-09T08:41:20.145Z,102738.44
2023-02-09T08:43:48.599Z,102751.50
2023-02-09T08:46:16.110Z,102751.59
2023-02-09T08:48:44.092Z,102748.78
2023-02-09T08:51:13.564Z,102755.47
2023-02-09T08:53:40.859Z,102756.00
2023-02-09T08:56:09.182Z,102762.38
2023-02-09T08:58:37.105Z,102771.06
2023-02-09T09:01:05.898Z,102771.06
2023-02-09T09:03:33.587Z,102778.06
2023-02-09T09:06:01.992Z,102777.22
2023-02-09T09:08:29.986Z,102776.38
2023-02-09T09:10:57.188Z,102772.91
2023-02-09T09:13:25.930Z,102779.00
2023-02-09T09:15:54.596Z,102780.69
2023-02-09T09:18:22.223Z,102784.22
2023-02-09T09:20:49.739Z,102788.69
2023-02-09T09:23:17.169Z,102792.16
2023-02-09T09:25:45.495Z,102799.03
2023-02-09T09:28:13.251Z,102791.06
2023-02-09T09:30:40.335Z,102796.22
2023-02-09T09:33:07.611Z,102802.97
2023-02-09T09:35:34.625Z,102799.38
2023-02-09T09:38:02.307Z,102801.81
2023-02-09T09:40:32.541Z,102803.31
2023-02-09T09:43:01.179Z,102800.69
2023-02-09T09:45:29.538Z,102802.47
2023-02-09T09:47:56.862Z,102799.44
2023-02-09T09:50:26.684Z,102801.72
2023-02-09T09:52:58.037Z,102811.63
2023-02-09T09:55:26.593Z,102815.41
2023-02-09T09:57:54.678Z,102816.59
2023-02-09T10:00:24.838Z,102812.78
2023-02-09T10:02:52.266Z,102814.94
2023-02-09T10:05:21.343Z,102823.25
2023-02-09T10:07:55.185Z,102819.16
2023-02-09T10:10:30.303Z,102816.97
2023-02-09T10:12:59.484Z,102822.59
2023-02-09T10:15:28.459Z,102807.63
2023-02-09T10:17:56.209Z,102799.66
2023-02-09T10:20:26.767Z,102817.84
2023-02-09T10:22:53.799Z,102825.44
2023-02-09T10:25:37.302Z,102835.50
2023-02-09T10:28:06.823Z,102843.38
2023-02-09T10:30:34.002Z,102849.25
2023-02-09T10:33:02.693Z,102834.28
2023-02-09T10:35:36.161Z,102842.91
2023-02-09T10:38:03.733Z,102835.59
2023-02-09T10:40:33.253Z,102836.09
2023-02-09T10:43:03.139Z,102831.31
2023-02-09T10:45:38.352Z,102857.00
2023-02-09T10:48:08.770Z,102860.94
2023-02-09T10:50:48.183Z,102850.19
2023-02-09T10:53:20.760Z,102851.41
2023-02-09T10:55:48.269Z,102846.63
2023-02-09T10:58:22.089Z,102854.22
2023-02-09T11:00:51.101Z,102853.09
2023-02-09T11:03:20.040Z,102846.69
2023-02-09T11:05:48.251Z,102839.56
2023-02-09T11:08:19.421Z,102846.41
2023-02-09T11:10:57.155Z,102851.59
2023-02-09T11:13:25.533Z,102846.50
2023-02-09T11:16:03.573Z,102848.47
2023-02-09T11:18:33.744Z,102852.88
2023-02-09T11:21:09.571Z,102852.25
2023-02-09T11:23:42.252Z,102846.69
2023-02-09T11:26:12.322Z,102846.69
2023-02-09T11:28:44.424Z,102837.03
2023-02-09T11:31:14.886Z,102848.09
2023-02-09T11:33:45.409Z,102841.63
2023-02-09T11:36:17.789Z,102838.78
2023-02-09T11:38:49.488Z,102823.69
2023-02-09T11:41:24.251Z,102813.91
2023-02-09T11:43:53.202Z,102823.19
2023-02-09T11:46:22.635Z,102813.25
2023-02-09T11:48:55.450Z,102808.53
2023-02-09T11:51:23.912Z,102811.50
2023-02-09T11:53:56.141Z,102810.19
2023-02-09T11:56:24.508Z,102813.16
2023-02-09T11:58:55.309Z,102825.06
2023-02-09T12:01:25.342Z,102833.69
2023-02-09T12:03:55.637Z,102830.84
2023-02-09T12:06:23.655Z,102822.66
2023-02-09T12:08:56.852Z,102823.41
2023-02-09T12:11:26.939Z,102818.66
2023-02-09T12:13:57.003Z,102820.13
2023-02-09T12:16:27.143Z,102819.81
2023-02-09T12:18:55.834Z,102826.38
2023-02-09T12:21:25.979Z,102819.72
2023-02-09T12:23:53.305Z,102818.38
2023-02-09T12:26:20.947Z,102822.84
2023-02-09T12:28:49.898Z,102822.09
2023-02-09T12:31:20.976Z,102815.38
2023-02-09T12:33:48.454Z,102824.53
2023-02-09T12:36:16.965Z,102817.16
2023-02-09T12:38:53.498Z,102815.03
2023-02-09T12:41:23.210Z,102804.31
2023-02-09T12:43:51.252Z,102806.00
2023-02-09T12:46:20.491Z,102804.81
2023-02-09T12:48:50.606Z,102803.13
2023-02-09T12:51:21.163Z,102810.28
2023-02-09T12:53:48.932Z,102815.56
2023-02-09T12:56:16.456Z,102813.16
2023-02-09T12:58:44.985Z,102827.50
2023-02-09T13:01:13.366Z,102827.06
2023-02-09T13:03:43.762Z,102819.38
2023-02-09T13:06:14.176Z,102821.34
2023-02-09T13:08:48.048Z,102826.09
2023-02-09T13:11:19.585Z,102815.56
2023-02-09T13:13:50.003Z,102816.31
2023-02-09T13:16:20.240Z,102812.09
2023-02-09T13:18:50.849Z,102823.28
2023-02-09T13:21:21.336Z,102820.81
2023-02-09T13:23:55.748Z,102819.78
2023-02-09T13:26:24.472Z,102810.09
2023-02-09T13:28:54.667Z,102815.38
2023-02-09T13:31:24.908Z,102814.97
2023-02-09T13:33:55.700Z,102823.56
2023-02-09T13:36:25.910Z,102820.75
2023-02-09T13:38:53.913Z,102803.88
2023-02-09T13:41:25.138Z,102802.09
2023-02-09T13:43:52.781Z,102803.03
2023-02-09T13:46:23.060Z,102795.88
2023-02-09T13:48:50.731Z,102798.19
2023-02-09T13:51:21.184Z,102809.97
2023-02-09T13:53:51.585Z,102821.88
2023-02-09T13:56:18.859Z,102823.25
2023-02-09T13:58:47.290Z,102829.69
2023-02-09T14:01:16.294Z,102829.88
2023-02-09T14:03:57.399Z,102826.78
2023-02-09T14:06:28.224Z,102824.56
2023-02-09T14:08:55.874Z,102831.28
2023-02-09T14:11:41.165Z,102836.03
2023-02-09T14:14:11.739Z,102832.97
2023-02-09T14:16:53.091Z,102840.63
2023-02-09T14:19:24.814Z,102852.03
2023-02-09T14:21:53.097Z,102841.59
2023-02-09T14:24:21.761Z,102855.75
2023-02-09T14:26:51.732Z,102854.25
2023-02-09T14:29:19.149Z,102843.00
2023-02-09T14:31:48.026Z,102851.00
2023-02-09T14:34:18.193Z,102850.91
2023-02-09T14:36:51.652Z,102850.91
2023-02-09T14:39:21.347Z,102863.25
2023-02-09T14:41:51.430Z,102858.91
2023-02-09T14:44:20.704Z,102854.59
2023-02-09T14:46:48.866Z,102849.22
2023-02-09T14:49:16.228Z,102859.66
2023-02-09T14:51:43.601Z,102877.88
2023-02-09T14:54:18.310Z,102869.56
2023-02-09T14:56:45.637Z,102860.78
2023-02-09T14:59:16.719Z,102857.41
2023-02-09T15:01:43.907Z,102863.75
2023-02-09T15:04:11.091Z,102863.88
2023-02-09T15:06:38.685Z,102863.13
2023-02-09T15:09:06.316Z,102848.47
2023-02-09T15:11:42.259Z,102848.69
2023-02-09T15:14:10.693Z,102856.81
2023-02-09T15:16:38.100Z,102853.34
2023-02-09T15:19:11.252Z,102857.78
2023-02-09T15:21:38.499Z,102865.03
2023-02-09T15:24:05.977Z,102855.56
2023-02-09T15:26:34.894Z,102874.03
2023-02-09T15:29:02.048Z,102863.69
2023-02-09T15:31:29.300Z,102870.88
2023-02-09T15:33:56.466Z,102871.06
2023-02-09T15:36:24.276Z,102872.13
2023-02-09T15:38:51.583Z,102881.00
2023-02-09T15:41:21.825Z,102885.75
2023-02-09T15:43:52.538Z,102885.97
2023-02-09T15:46:23.183Z,102883.66
2023-02-09T15:48:50.703Z,102882.06
2023-02-09T15:51:17.972Z,102883.97
2023-02-09T15:53:46.352Z,102875.31
2023-02-09T15:56:15.315Z,102889.66
2023-02-09T15:58:44.611Z,102884.56
2023-02-09T16:01:13.778Z,102892.59
2023-02-09T16:03:41.106Z,102900.69
2023-02-09T16:06:13.180Z,102903.66
2023-02-09T16:08:40.468Z,102910.06
2023-02-09T16:11:12.786Z,102907.75
2023-02-09T16:13:39.995Z,102895.75
2023-02-09T16:16:16.675Z,102904.06
2023-02-09T16:18:44.815Z,102913.97
2023-02-09T16:21:17.169Z,102913.22
2023-02-09T16:23:46.133Z,102919.50
2023-02-09T16:26:13.496Z,102922.34
2023-02-09T16:28:41.098Z,102929.50
2023-02-09T16:31:10.307Z,102931.50
2023-02-09T16:33:39.522Z,102933.41
2023-02-09T16:36:13.402Z,102935.38
2023-02-09T16:38:40.924Z,102940.94
2023-02-09T16:41:30.931Z,102942.09
2023-02-09T16:43:58.503Z,102947.56
2023-02-09T16:46:25.656Z,102947.84
2023-02-09T16:48:53.243Z,102958.56
2023-02-09T16:51:21.169Z,102952.66
2023-02-09T16:53:51.944Z,102957.16
2023-02-09T16:56:19.955Z,102962.44
2023-02-09T16:58:47.966Z,102957.38
2023-02-09T17:01:18.121Z,102970.63
2023-02-09T17:03:48.609Z,102979.47
2023-02-09T17:06:17.716Z,102983.13
2023-02-09T17:08:45.397Z,102983.31
2023-02-09T17:11:16.912Z,102993.97
2023-02-09T17:13:44.130Z,102998.53
2023-02-09T17:16:18.388Z,102997.69
2023-02-09T17:18:46.358Z,102999.47
2023-02-09T17:21:17.076Z,102997.78
2023-02-09T17:23:44.787Z,102997.88
2023-02-09T17:26:13.307Z,102993.75
2023-02-09T17:28:42.960Z,102999.94
2023-02-09T17:31:15.913Z,102989.63
2023-02-09T17:33:43.544Z,103014.31
2023-02-09T17:36:29.587Z,103003.88
2023-02-09T17:38:58.304Z,103004.94
2023-02-09T17:41:28.619Z,103004.09
2023-02-09T17:43:56.948Z,102999.03
2023-02-09T17:46:24.958Z,103005.31
2023-02-09T17:48:52.584Z,103009.06
2023-02-09T17:51:21.883Z,103022.28
2023-02-09T17:53:49.423Z,103028.59
2023-02-09T17:56:17.008Z,103031.41
2023-02-09T17:58:45.094Z,103043.91
2023-02-09T18:01:23.675Z,103051.88
2023-02-09T18:03:53.814Z,103047.66
2023-02-09T18:06:23.264Z,103065.28
2023-02-09T18:08:50.760Z,103060.13
2023-02-09T18:11:18.049Z,103057.59
2023-02-09T18:13:45.668Z,103060.31
2023-02-09T18:16:13.947Z,103065.66
2023-02-09T18:18:41.563Z,103073.53
2023-02-09T18:21:13.313Z,103077.22
2023-02-09T18:23:42.475Z,103067.63
2023-02-09T18:26:09.952Z,103071.28
2023-02-09T18:28:37.249Z,103072.31
2023-02-09T18:31:06.789Z,103072.38
2023-02-09T18:33:34.493Z,103071.53
2023-02-09T18:36:02.768Z,103061.31
2023-02-09T18:38:30.660Z,103072.78
2023-02-09T18:40:57.698Z,103072.94
2023-02-09T18:43:24.864Z,103071.22
2023-02-09T18:45:52.273Z,103087.97
2023-02-09T18:48:19.880Z,103082.00
2023-02-09T18:50:47.233Z,103089.81
2023-02-09T18:53:15.158Z,103088.97
2023-02-09T18:55:42.507Z,103090.81
2023-02-09T18:58:10.280Z,103092.78
2023-02-09T19:00:37.971Z,103092.06
2023-02-09T19:03:05.542Z,103089.50
2023-02-09T19:05:34.919Z,103095.78
2023-02-09T19:08:02.307Z,103094.09
2023-02-09T19:10:33.376Z,103096.81
2023-02-09T19:13:02.903Z,103098.66
2023-02-09T19:15:30.549Z,103106.72
2023-02-09T19:17:58.187Z,103106.06
2023-02-09T19:20:27.883Z,103107.16
2023-02-09T19:22:56.225Z,103105.63
2023-02-09T19:25:25.342Z,103102.34
2023-02-09T19:27:53.081Z,103102.50
2023-02-09T19:30:25.205Z,103107.88
2023-02-09T19:32:53.675Z,103116.00
2023-02-09T19:35:23.119Z,103118.69
2023-02-09T19:37:50.935Z,103125.66
2023-02-09T19:40:21.815Z,103117.00
2023-02-09T19:42:49.276Z,103127.56
2023-02-09T19:45:16.671Z,103131.16
2023-02-09T19:47:44.387Z,103131.16
2023-02-09T19:50:12.208Z,103130.38
2023-02-09T19:52:41.067Z,103136.56
2023-02-09T19:55:08.667Z,103142.91
2023-02-09T19:57:35.878Z,103150.88
2023-02-09T20:00:05.978Z,103143.19
2023-02-09T20:02:33.146Z,103147.56
2023-02-09T20:05:00.209Z,103157.31
2023-02-09T20:07:27.188Z,103159.19
2023-02-09T20:09:54.139Z,103163.72
2023-02-09T20:12:22.396Z,103166.59
2023-02-09T20:14:49.734Z,103161.53
2023-02-09T20:17:16.743Z,103172.09
2023-02-09T20:19:43.845Z,103169.72
2023-02-09T20:22:12.339Z,103174.22
2023-02-09T20:24:39.332Z,103170.75
2023-02-09T20:27:08.137Z,103165.56
2023-02-09T20:29:35.432Z,103170.81
2023-02-09T20:32:02.466Z,103170.03
2023-02-09T20:34:29.527Z,103170.03
2023-02-09T20:36:57.827Z,103177.91
2023-02-09T20:39:24.803Z,103178.88
2023-02-09T20:41:58.320Z,103180.63
2023-02-09T20:44:31.407Z,103172.84
2023-02-09T20:46:58.509Z,103183.50
2023-02-09T20:49:29.871Z,103180.97
2023-02-09T20:51:57.031Z,103180.09
2023-02-09T20:54:24.340Z,103181.09
2023-02-09T20:56:51.396Z,103179.44
2023-02-09T20:59:18.318Z,103183.03
2023-02-09T21:01:46.267Z,103183.13
2023-02-09T21:04:13.500Z,103184.06
2023-02-09T21:06:40.458Z,103184.13
2023-02-09T21:09:08.733Z,103180.66
2023-02-09T21:11:35.588Z,103177.19
2023-02-09T21:14:02.994Z,103178.13
2023-02-09T21:16:31.195Z,103184.44
2023-02-09T21:18:58.923Z,103184.50
2023-02-09T21:21:27.422Z,103188.97
2023-02-09T21:23:54.550Z,103189.91
2023-02-09T21:26:23.031Z,103205.63
2023-02-09T21:28:52.265Z,103207.41
2023-02-09T21:31:21.314Z,103203.09
2023-02-09T21:33:48.740Z,103204.03
2023-02-09T21:36:19.045Z,103207.66
2023-02-09T21:38:45.995Z,103207.81
2023-02-09T21:41:18.257Z,103210.50
2023-02-09T21:43:47.257Z,103198.31
2023-02-09T21:46:17.178Z,103196.56
2023-02-09T21:48:44.170Z,103200.94
2023-02-09T21:51:11.465Z,103207.88
2023-02-09T21:53:43.690Z,103207.97
2023-02-09T21:56:10.572Z,103210.50
2023-02-09T21:58:37.406Z,103205.44
2023-02-09T22:01:04.571Z,103206.25
2023-02-09T22:03:31.600Z,103202.66
2023-02-09T22:05:59.361Z,103203.63
2023-02-09T22:08:26.965Z,103202.88
2023-02-09T22:10:54.045Z,103203.03
2023-02-09T22:13:20.946Z,103200.50
2023-02-09T22:15:47.826Z,103197.09
2023-02-09T22:18:14.787Z,103198.00
2023-02-09T22:20:42.552Z,103200.78
2023-02-09T22:23:09.751Z,103200.00
2023-02-09T22:25:37.454Z,103199.03
2023-02-09T22:28:05.006Z,103204.19
2023-02-09T22:30:32.371Z,103200.72
2023-02-09T22:32:59.451Z,103199.03
2023-02-09T22:35:26.447Z,103191.31
2023-02-09T22:37:53.417Z,103194.88
2023-02-09T22:40:20.699Z,103195.09
2023-02-09T22:42:47.816Z,103194.50
2023-02-09T22:45:14.709Z,103188.47
2023-02-09T22:47:41.628Z,103181.53
2023-02-09T22:50:08.839Z,103191.09
2023-02-09T22:52:35.745Z,103200.94
2023-02-09T22:55:02.573Z,103196.84
2023-02-09T22:57:29.357Z,103190.06
2023-02-09T22:59:56.180Z,103188.38
2023-02-09T23:02:23.994Z,103197.84
2023-02-09T23:04:50.831Z,103196.16
2023-02-09T23:07:17.763Z,103195.03
2023-02-09T23:09:44.985Z,103195.09
2023-02-09T23:12:11.845Z,103200.56
2023-02-09T23:14:38.719Z,103194.53
2023-02-09T23:17:07.313Z,103202.56
2023-02-09T23:19:34.236Z,103200.84
2023-02-09T23:22:01.082Z,103206.09
2023-02-09T23:24:28.587Z,103202.63
2023-02-09T23:26:55.565Z,103205.94
2023-02-09T23:29:22.493Z,103211.50
2023-02-09T23:31:49.664Z,103206.44
2023-02-09T23:34:19.584Z,103207.53
2023-02-09T23:36:46.884Z,103203.41
2023-02-09T23:39:15.728Z,103201.81
2023-02-09T23:41:42.553Z,103211.38
2023-02-09T23:44:09.495Z,103216.53
2023-02-09T23:46:36.485Z,103217.53
2023-02-09T23:49:03.430Z,103218.59
2023-02-09T23:51:32.057Z,103218.72
2023-02-09T23:54:00.443Z,103224.13
2023-02-09T23:56:27.932Z,103222.47
2023-02-09T23:58:55.048Z,103231.41
